CPX319 Details

Departure: Washington Dulles International Airport (KIAD)
Arrival: Seattle-Tacoma International Airport (KSEA)
Route: MCRAY2 MCRAY J518 IHD LEJOY J518 DJB J34 HASTE KP87M CESNA ISN MLP GLASR1


Current Weather Information
KIAD 252352Z 02011KT 9SM BKN013 OVC050 08/06 A3003 RMK AO2 SLP171 60000 T00830056 10150 20083 51019
KSEA 252353Z 24015KT 10SM -RA SCT060 OVC090 11/05 A2988 RMK AO2 RAB50 SLP125 P0000 60000 T01060050 10156 20106 53004